Latest Weather Observations for Gingin Airport

IDW60801

Issued at 11:34 am WST Sunday 25 June 2017 (issued every 30 minutes, with the page automatically refreshed every 10 minutes)

About weather observations | Map of weather stations | Latest weather observations for WA | Other Formats
Station Details ID: 009178 Name: GINGIN AERO Lat: -31.46 Lon: 115.86 Height: 73.0 m
Data from the previous 72 hours. | See also: Recent months at Gingin Airport
Date/Time
WST
Temp
°C
App
Temp
°C
Dew
Point
°C
Rel
Hum
%
Delta-T
°C
Wind Press
QNH
hPa
Press
MSL
hPa
Rain since
9am
mm
Dir  Spd
km/h
Gust
km/h
Spd
kts
Gust
kts
25/11:30am 14.7 9.2 6.0 56 4.2 E 24 32 13 17 1027.9 1027.9 0.0
25/11:00am 14.2 8.4 6.1 58 3.9 E 26 33 14 18 1028.3 1028.3 0.0
25/10:30am 13.6 8.6 6.5 62 3.4 E 22 30 12 16 1028.5 1028.5 0.0
25/10:00am 13.1 8.7 6.7 65 3.1 E 19 26 10 14 1028.5 1028.5 0.0
25/09:30am 12.1 10.4 7.4 73 2.3 ESE 6 24 3 13 1028.5 1028.5 0.0
25/09:00am 11.0 9.3 7.5 79 1.7 ESE 6 20 3 11 1028.3 1028.3 0.0
25/08:30am 10.1 8.8 7.5 84 1.2 ESE 4 19 2 10 1028.1 1028.1 0.0
25/08:00am 8.7 8.0 6.8 88 0.9 CALM 0 0 0 0 1027.8 1027.8 0.0
25/07:30am 8.7 7.6 6.8 88 0.9 SE 2 20 1 11 1027.4 1027.4 0.0
25/07:00am 9.1 7.7 7.1 87 0.9 SE 4 17 2 9 1026.9 1026.9 0.0
25/06:30am 9.0 7.6 7.1 88 0.9 SE 4 20 2 11 1026.6 1026.6 0.0
25/06:00am 9.1 8.5 7.2 88 0.9 CALM 0 0 0 0 1026.5 1026.5 0.0
25/05:30am 9.2 8.6 7.6 90 0.8 CALM 0 0 0 0 1026.3 1026.3 0.0
25/05:00am 8.8 8.2 7.3 90 0.7 CALM 0 0 0 0 1026.0 1026.0 0.0
25/04:30am 8.8 8.2 7.3 90 0.7 CALM 0 0 0 0 1026.0 1026.0 0.0
25/04:00am 8.7 8.1 7.3 91 0.7 CALM 0 0 0 0 1026.1 1026.1 0.0
25/03:30am 8.2 7.5 7.1 93 0.5 CALM 0 11 0 6 1026.3 1026.3 0.0
25/03:00am 6.3 5.2 4.9 91 0.6 CALM 0 0 0 0 1026.4 1026.4 0.0
25/02:30am 7.0 6.0 5.6 91 0.6 CALM 0 0 0 0 1026.5 1026.5 0.0
25/02:00am 7.6 3.9 6.2 91 0.6 SE 15 22 8 12 1026.5 1026.5 0.0
25/01:30am 6.5 5.3 4.8 89 0.7 CALM 0 0 0 0 1026.4 1026.4 0.0
25/01:00am 6.0 4.7 4.3 89 0.7 CALM 0 0 0 0 1026.3 1026.3 0.0
25/12:30am 5.6 4.2 3.8 88 0.8 CALM 0 6 0 3 1026.3 1026.3 0.0
25/12:00am 5.3 3.8 2.8 84 1.0 CALM 0 0 0 0 1026.3 1026.3 0.0
 
Date/Time
WST
Temp
°C
App
Temp
°C
Dew
Point
°C
Rel
Hum
%
Delta-T
°C
Wind Press
QNH
hPa
Press
MSL
hPa
Rain since
9am
mm
Dir  Spd
km/h
Gust
km/h
Spd
kts
Gust
kts
24/11:30pm 7.6 6.4 4.4 80 1.4 CALM 0 0 0 0 1026.2 1026.2 0.0
24/11:00pm 8.1 5.6 4.5 78 1.6 SSE 7 17 4 9 1026.2 1026.2 0.0
24/10:30pm 8.4 5.1 4.4 76 1.8 SSE 11 15 6 8 1026.0 1026.0 0.0
24/10:00pm 9.3 5.6 4.5 72 2.1 SSE 13 15 7 8 1025.8 1025.8 0.0
24/09:30pm 9.2 5.5 4.6 73 2.0 SSE 13 15 7 8 1025.6 1025.6 0.0
24/09:00pm 9.7 5.7 4.9 72 2.1 SSE 15 17 8 9 1025.6 1025.6 0.0
24/08:30pm 9.8 6.2 5.2 73 2.1 SSE 13 15 7 8 1025.4 1025.4 0.0
24/08:00pm 9.7 6.1 5.1 73 2.1 SSE 13 15 7 8 1025.2 1025.2 0.0
24/07:30pm 10.1 6.6 5.3 72 2.2 SSE 13 13 7 7 1025.0 1025.0 0.0
24/07:00pm 11.0 7.8 5.3 68 2.6 SSE 11 13 6 7 1024.9 1024.9 0.0
24/06:30pm 12.4 9.4 5.8 64 3.1 SE 11 15 6 8 1024.6 1024.6 0.0
24/06:00pm 13.6 10.2 6.0 60 3.6 ESE 13 17 7 9 1024.4 1024.4 0.0
24/05:30pm 14.6 10.2 6.4 58 4.0 SE 19 24 10 13 1024.1 1024.1 0.0
24/05:00pm 15.2 10.7 7.0 58 4.0 SE 20 28 11 15 1023.8 1023.8 0.0
24/04:30pm 15.9 11.0 7.1 56 4.4 ESE 22 28 12 15 1023.5 1023.5 0.0
24/04:00pm 16.3 11.4 7.0 54 4.6 ESE 22 30 12 16 1023.2 1023.2 0.0
24/03:30pm 16.4 11.6 7.3 55 4.5 ESE 22 26 12 14 1023.0 1023.0 0.0
24/03:00pm 16.8 12.6 7.4 54 4.7 SE 19 28 10 15 1023.0 1023.0 0.0
24/02:30pm 17.4 13.1 7.7 53 4.9 E 20 28 11 15 1022.9 1022.9 0.0
24/02:00pm 16.6 12.3 7.8 56 4.4 ESE 20 26 11 14 1022.9 1022.9 0.0
24/01:30pm 17.3 12.7 8.2 55 4.7 ESE 22 28 12 15 1023.1 1023.1 0.0
24/01:00pm 16.8 11.3 7.7 55 4.6 E 26 35 14 19 1023.5 1023.5 0.0
24/12:30pm 17.2 12.2 8.1 55 4.6 ESE 24 35 13 19 1023.8 1023.8 0.0
24/12:00pm 16.7 11.4 8.4 58 4.2 E 26 37 14 20 1024.1 1024.1 0.0
24/11:30am 16.5 11.5 8.2 58 4.2 E 24 35 13 19 1024.5 1024.5 0.0
24/11:00am 15.8 9.5 7.6 58 4.1 E 30 39 16 21 1024.9 1024.9 0.0
24/10:30am 15.7 10.8 8.4 62 3.7 E 24 32 13 17 1025.4 1025.4 0.0
24/10:00am 14.9 9.6 8.4 65 3.3 ESE 26 35 14 19 1025.6 1025.6 0.0
24/09:30am 14.2 9.7 8.4 68 2.9 ESE 22 30 12 16 1025.5 1025.5 0.0
24/09:00am 13.5 9.5 8.4 71 2.5 ESE 19 26 10 14 1025.4 1025.4 0.0
24/08:30am 12.6 9.7 8.1 74 2.2 SE 13 17 7 9 1025.1 1025.1 0.0
24/08:00am 11.8 8.8 7.9 77 1.9 SE 13 17 7 9 1024.6 1024.6 0.0
24/07:30am 11.2 7.4 7.7 79 1.7 ESE 17 22 9 12 1024.2 1024.2 0.0
24/07:00am 10.9 7.1 7.6 80 1.6 ESE 17 20 9 11 1024.0 1024.0 0.0
24/06:30am 11.0 6.8 7.5 79 1.7 ESE 19 22 10 12 1023.8 1023.8 0.0
24/06:00am 11.1 6.9 7.6 79 1.7 ESE 19 22 10 12 1023.6 1023.6 0.0
24/05:30am 11.3 6.9 7.6 78 1.8 ESE 20 26 11 14 1023.6 1023.6 0.0
24/05:00am 11.6 6.9 7.9 78 1.8 ESE 22 30 12 16 1023.5 1023.5 0.0
24/04:30am 11.5 7.8 8.0 79 1.7 E 17 24 9 13 1023.5 1023.5 0.0
24/04:00am 11.7 7.5 8.2 79 1.7 ESE 20 26 11 14 1023.4 1023.4 0.0
24/03:30am 11.9 8.6 8.2 78 1.8 ESE 15 20 8 11 1023.7 1023.7 0.0
24/03:00am 12.3 8.1 8.4 77 1.9 ESE 20 30 11 16 1023.8 1023.8 0.0
24/02:30am 12.3 8.4 8.8 79 1.8 SE 19 32 10 17 1023.7 1023.7 0.0
24/02:00am 12.5 7.7 9.0 79 1.8 ESE 24 35 13 19 1023.5 1023.5 0.0
24/01:30am 12.6 8.3 9.2 80 1.7 ESE 22 30 12 16 1023.6 1023.6 0.0
24/01:00am 13.0 7.6 9.4 79 1.8 ESE 28 39 15 21 1023.5 1023.5 0.0
24/12:30am 13.3 8.6 9.4 77 2.0 ESE 24 37 13 20 1023.3 1023.3 0.0
24/12:00am 13.8 8.0 9.5 75 2.2 ESE 30 43 16 23 1023.3 1023.3 0.0
 
Date/Time
WST
Temp
°C
App
Temp
°C
Dew
Point
°C
Rel
Hum
%
Delta-T
°C
Wind Press
QNH
hPa
Press
MSL
hPa
Rain since
9am
mm
Dir  Spd
km/h
Gust
km/h
Spd
kts
Gust
kts
23/11:30pm 14.2 8.4 9.6 74 2.4 ESE 30 39 16 21 1023.3 1023.3 0.0
23/11:00pm 14.3 9.1 10.1 76 2.2 ESE 28 41 15 22 1023.1 1023.1 0.0
23/10:30pm 14.2 10.2 10.4 78 2.0 ESE 22 30 12 16 1022.9 1022.9 0.0
23/10:00pm 14.1 9.3 10.3 78 2.0 ESE 26 33 14 18 1022.8 1022.8 0.0
23/09:30pm 13.9 10.0 10.9 82 1.6 ESE 22 32 12 17 1022.4 1022.4 0.0
23/09:00pm 13.5 10.2 10.9 84 1.4 ESE 19 24 10 13 1022.2 1022.2 0.0
23/08:30pm 13.5 10.6 10.9 84 1.4 ESE 17 24 9 13 1022.1 1022.1 0.0
23/08:00pm 13.5 11.0 11.0 85 1.3 SE 15 17 8 9 1021.9 1021.9 0.0
23/07:30pm 13.6 11.9 11.3 86 1.2 SE 11 15 6 8 1021.6 1021.6 0.0
23/07:00pm 14.6 12.0 11.9 84 1.5 ESE 17 20 9 11 1021.3 1021.3 0.0
23/06:30pm 15.0 12.8 12.1 83 1.6 ESE 15 17 8 9 1020.9 1020.9 0.0
23/06:00pm 15.3 13.1 12.2 82 1.7 ESE 15 24 8 13 1020.8 1020.8 0.0
23/05:30pm 15.5 12.5 11.9 79 2.0 ESE 19 28 10 15 1020.4 1020.4 0.0
23/05:00pm 16.1 13.2 12.3 78 2.1 ESE 19 24 10 13 1020.0 1020.0 0.0
23/04:30pm 16.2 11.6 12.2 77 2.2 E 28 35 15 19 1019.6 1019.6 0.0
23/04:00pm 16.9 12.3 12.2 74 2.6 ESE 28 39 15 21 1019.5 1019.5 0.0
23/03:30pm 16.9 12.7 12.4 75 2.5 ESE 26 35 14 19 1019.2 1019.2 0.0
23/03:00pm 16.9 11.4 12.0 73 2.7 ESE 32 39 17 21 1019.0 1019.0 0.0
23/02:30pm 17.6 12.6 12.1 70 3.0 ESE 30 35 16 19 1018.6 1018.6 0.0
23/02:00pm 18.6 13.7 12.6 68 3.4 E 30 39 16 21 1018.3 1018.3 0.0
23/01:30pm 18.0 12.6 12.2 69 3.2 E 32 43 17 23 1018.5 1018.5 0.0
23/01:00pm 17.8 12.4 12.7 72 2.8 ESE 33 43 18 23 1018.6 1018.6 0.0
23/12:30pm 17.2 11.8 12.3 73 2.7 ESE 32 41 17 22 1018.9 1018.9 0.0
23/12:00pm 16.6 12.7 12.2 75 2.4 ESE 24 37 13 20 1019.1 1019.1 0.0
23/11:30am 16.7 13.3 12.5 76 2.3 ESE 22 33 12 18 1019.3 1019.3 0.0
23/11:00am 16.7 13.1 13.0 79 2.1 E 24 33 13 18 1019.4 1019.4 0.0
23/10:30am 16.3 11.4 12.7 79 2.0 E 30 37 16 20 1019.2 1019.2 0.0
23/10:00am 15.5 11.8 12.6 83 1.6 E 24 35 13 19 1019.2 1019.2 0.0
23/09:30am 14.7 12.3 12.7 88 1.1 ESE 17 20 9 11 1018.8 1018.8 0.0
23/09:00am 14.0 11.5 12.2 89 1.0 ESE 17 20 9 11 1018.4 1018.4 4.2
23/08:30am 13.8 10.8 12.4 91 0.8 ESE 20 26 11 14 1017.8 1017.7 4.2
23/08:00am 13.6 10.8 12.5 93 0.6 ESE 19 24 10 13 1017.3 1017.2 4.2
23/07:30am 13.2 9.7 12.3 94 0.5 ESE 22 26 12 14 1016.5 1016.5 4.2
23/07:00am 13.2 10.1 12.1 93 0.6 E 20 26 11 14 1015.9 1015.9 4.2
23/06:30am 12.9 9.9 12.0 94 0.5 ESE 19 24 10 13 1015.2 1015.2 4.2
23/06:00am 13.0 9.9 12.1 94 0.5 ESE 20 26 11 14 1014.7 1014.7 4.2
23/05:30am 12.8 9.8 12.0 95 0.4 ESE 19 24 10 13 1014.2 1014.2 4.2
23/05:00am 12.8 10.2 12.0 95 0.4 ESE 17 20 9 11 1013.7 1013.7 4.0
23/04:30am 12.6 10.0 12.0 96 0.3 SE 17 22 9 12 1013.3 1013.3 3.8
23/04:00am 12.6 10.4 12.0 96 0.3 SE 15 17 8 9 1013.2 1013.2 3.8
23/03:30am 12.6 10.7 11.8 95 0.4 SE 13 17 7 9 1013.0 1013.0 3.8
23/03:00am 12.5 10.6 11.7 95 0.4 ESE 13 15 7 8 1012.6 1012.6 3.8
23/02:30am 12.4 10.8 11.6 95 0.4 ESE 11 13 6 7 1012.3 1012.3 3.4
23/02:00am 12.4 11.2 11.5 94 0.5 NE 9 11 5 6 1012.0 1012.0 3.2
23/01:30am 12.5 12.9 11.4 93 0.6 CALM 0 0 0 0 1011.7 1011.7 3.0
23/01:00am 12.6 12.2 11.2 91 0.7 SSW 4 7 2 4 1011.6 1011.6 2.8
23/12:30am 13.4 12.3 10.6 83 1.5 W 7 9 4 5 1011.6 1011.6 2.6
23/12:00am 13.4 12.0 10.8 84 1.4 WSW 9 11 5 6 1011.6 1011.6 2.6
 
Date/Time
WST
Temp
°C
App
Temp
°C
Dew
Point
°C
Rel
Hum
%
Delta-T
°C
Wind Press
QNH
hPa
Press
MSL
hPa
Rain since
9am
mm
Dir  Spd
km/h
Gust
km/h
Spd
kts
Gust
kts
22/11:30pm 13.6 11.4 10.8 83 1.5 WSW 13 17 7 9 1011.6 1011.6 2.6
22/11:00pm 13.7 11.5 10.9 83 1.5 WSW 13 17 7 9 1011.7 1011.7 2.6
22/10:30pm 13.9 12.1 10.7 81 1.7 SW 11 17 6 9 1011.8 1011.8 2.6
22/10:00pm 13.8 10.8 10.8 82 1.6 SW 17 22 9 12 1011.9 1011.9 2.6
22/09:30pm 14.1 10.1 10.5 79 1.9 SW 22 30 12 16 1012.2 1012.2 2.6
22/09:00pm 14.3 11.2 10.3 77 2.1 SW 17 24 9 13 1012.1 1012.1 2.6
22/08:30pm 14.1 11.0 10.3 78 2.0 SW 17 22 9 12 1012.0 1012.0 2.6
22/08:00pm 13.8 10.2 9.8 77 2.1 SW 19 22 10 12 1012.0 1012.0 2.6
22/07:30pm 14.1 10.7 10.7 80 1.8 WSW 19 26 10 14 1012.1 1012.1 2.6
22/07:00pm 14.3 11.3 10.5 78 2.0 WSW 17 22 9 12 1012.1 1012.1 2.6
22/06:30pm 14.5 11.6 10.9 79 1.9 SW 17 24 9 13 1012.2 1012.2 2.6
22/06:00pm 14.4 12.1 11.9 85 1.4 WSW 15 20 8 11 1011.9 1011.9 2.6
22/05:30pm 14.6 12.8 12.1 85 1.4 W 13 19 7 10 1011.6 1011.6 2.6
22/05:00pm 15.7 12.2 12.1 79 2.0 SW 22 32 12 17 1011.3 1011.3 2.6
22/04:30pm 16.4 13.0 12.6 78 2.1 WSW 22 30 12 16 1010.9 1010.9 2.6
22/04:00pm 16.4 11.5 12.4 77 2.2 WSW 30 41 16 22 1010.8 1010.8 2.6
22/03:30pm 17.0 12.5 12.7 76 2.4 WSW 28 35 15 19 1010.4 1010.4 2.6
22/03:00pm 17.0 13.5 13.3 79 2.1 WSW 24 35 13 19 1010.1 1010.1 2.6
22/02:30pm 16.9 12.6 13.2 79 2.1 WSW 28 37 15 20 1009.7 1009.7 2.6
22/02:00pm 17.1 14.1 13.8 81 1.9 WSW 22 30 12 16 1009.5 1009.5 2.6
22/01:30pm 16.7 13.0 14.0 84 1.5 WSW 26 33 14 18 1009.5 1009.5 2.6
22/01:00pm 16.1 12.4 13.8 86 1.3 W 26 35 14 19 1009.4 1009.4 2.4
22/12:30pm 17.1 13.6 13.4 79 2.1 W 24 35 13 19 1009.1 1009.1 1.4
22/12:00pm 17.0 13.7 14.1 83 1.7 W 24 35 13 19 1009.1 1009.1 1.4

Other Formats:

Comma delimited format used in spreadsheet applications
http://www.bom.gov.au/fwo/IDW60801/IDW60801.95612.axf

JavaScript Object Notation format (JSON) in row-major order
http://www.bom.gov.au/fwo/IDW60801/IDW60801.95612.json